Time;durP1;ratioP1;P1;durP2;ratioP2;P2;SDS_P1;SDS_P2;PMS_P1;PMS_P2;Temp;Humidity;BMP_temperature;BMP_pressure;BME280_temperature;BME280_humidity;BME280_pressure;Samples;Min_cycle;Max_cycle;Signal;HPM_P1;HPM_P2
2023/01/06 16:40:17;;;;;;;29.52;16.42;;;;;;;;;;5011291;23;20490;-87
2023/01/06 17:06:19;;;;;;;26.85;16.70;;;;;;;;;;5648798;23;20044;-92
2023/01/06 17:08:45;;;;;;;41.45;21.27;;;;;;;;;;4921931;29;20044;-91
2023/01/06 17:11:23;;;;;;;68.00;32.75;;;;;;;;;;4924628;29;20035;-91
2023/01/06 17:14:03;;;;;;;34.25;20.77;;;;;;;;;;4932125;29;20435;-91
2023/01/06 17:16:37;;;;;;;33.90;19.42;;;;;;;;;;4923730;29;20031;-92
2023/01/06 17:19:18;;;;;;;31.77;18.05;;;;;;;;;;4916718;29;20034;-92
2023/01/06 17:21:44;;;;;;;30.95;17.38;;;;;;;;;;4916923;29;20036;-95
2023/01/06 17:24:16;;;;;;;33.28;18.55;;;;;;;;;;4921625;29;20020;-92
2023/01/06 17:26:48;;;;;;;31.85;18.02;;;;;;;;;;4903650;29;20058;-92
2023/01/06 17:29:17;;;;;;;29.77;16.88;;;;;;;;;;4917926;29;20036;-92
2023/01/06 17:31:45;;;;;;;32.28;18.23;;;;;;;;;;4916711;29;20032;-93
2023/01/06 17:34:22;;;;;;;31.45;17.48;;;;;;;;;;4916326;29;20171;-94
2023/01/06 17:36:54;;;;;;;30.48;16.90;;;;;;;;;;4929919;29;20028;-94
2023/01/06 17:39:38;;;;;;;36.05;19.50;;;;;;;;;;4917002;29;20036;-95
2023/01/06 17:42:10;;;;;;;31.25;18.63;;;;;;;;;;4922305;29;20028;-92
2023/01/06 17:44:37;;;;;;;30.40;18.50;;;;;;;;;;4916996;29;20024;-92
2023/01/06 17:47:15;;;;;;;32.85;18.63;;;;;;;;;;4916593;29;20028;-92
2023/01/06 19:09:24;;;;;;;34.55;19.40;;;;;;;;;;5040021;23;20051;-91
2023/01/06 19:12:10;;;;;;;31.52;17.17;;;;;;;;;;4978453;28;20499;-88
2023/01/06 19:14:39;;;;;;;32.97;18.60;;;;;;;;;;4976607;28;20042;-91
2023/01/06 19:17:32;;;;;;;29.93;16.73;;;;;;;;;;4975817;28;20022;-93
2023/01/06 19:20:37;;;;;;;31.88;18.45;;;;;;;;;;4976265;28;20053;-89
2023/01/06 19:23:21;;;;;;;31.35;18.15;;;;;;;;;;4901654;29;20505;-89
2023/01/06 19:25:52;;;;;;;32.83;18.95;;;;;;;;;;4918079;29;20192;-90
2023/01/06 19:28:21;;;;;;;61.22;34.03;;;;;;;;;;4902616;29;20111;-90
2023/01/06 19:30:50;;;;;;;59.95;33.08;;;;;;;;;;4903236;29;20036;-89
2023/01/06 19:33:15;;;;;;;47.15;26.70;;;;;;;;;;4901665;29;20063;-90
2023/01/06 19:35:41;;;;;;;48.55;26.08;;;;;;;;;;4917428;29;20032;-91
2023/01/06 19:38:28;;;;;;;56.83;31.98;;;;;;;;;;4901877;29;20027;-93
2023/01/06 19:40:56;;;;;;;66.85;38.67;;;;;;;;;;4905526;29;20441;-96
2023/01/06 19:43:27;;;;;;;103.57;53.67;;;;;;;;;;4901420;29;20553;-95
2023/01/06 19:45:53;;;;;;;75.10;42.85;;;;;;;;;;4911440;29;20035;-92
2023/01/06 19:48:21;;;;;;;58.08;34.00;;;;;;;;;;4894707;29;20036;-95
2023/01/06 19:50:47;;;;;;;53.67;31.33;;;;;;;;;;4900118;29;20224;-93
2023/01/06 19:53:38;;;;;;;56.35;33.53;;;;;;;;;;4914445;29;20506;-92
2023/01/06 19:56:34;;;;;;;55.60;31.92;;;;;;;;;;4957364;28;20023;-93
2023/01/06 19:59:02;;;;;;;52.00;31.80;;;;;;;;;;4956026;28;20030;-93
2023/01/06 20:01:31;;;;;;;63.22;34.90;;;;;;;;;;4964809;28;20438;-94
2023/01/06 20:03:56;;;;;;;56.85;33.42;;;;;;;;;;4973219;28;20034;-93
2023/01/06 20:06:23;;;;;;;72.95;39.67;;;;;;;;;;4975432;28;20027;-93
2023/01/06 20:08:52;;;;;;;54.20;31.08;;;;;;;;;;4974790;28;20089;-94
2023/01/06 20:11:18;;;;;;;52.47;30.43;;;;;;;;;;4975208;28;20101;-94
2023/01/06 20:13:44;;;;;;;47.25;29.80;;;;;;;;;;4975090;28;20023;-94
2023/01/06 20:16:09;;;;;;;46.33;28.00;;;;;;;;;;4975123;28;20033;-95
2023/01/06 20:18:35;;;;;;;48.45;29.38;;;;;;;;;;4964173;28;20027;-94
2023/01/06 20:21:03;;;;;;;47.95;28.55;;;;;;;;;;4972560;28;20022;-95
2023/01/06 20:23:29;;;;;;;44.88;26.67;;;;;;;;;;4975146;28;20035;-94
2023/01/06 20:25:55;;;;;;;44.67;26.10;;;;;;;;;;4975009;28;20125;-96
2023/01/06 20:28:23;;;;;;;47.00;27.27;;;;;;;;;;4978814;28;20039;-95
2023/01/06 20:30:49;;;;;;;44.38;26.65;;;;;;;;;;4976833;28;20097;-94
2023/01/06 20:33:14;;;;;;;46.40;26.75;;;;;;;;;;4974403;28;20466;-94
2023/01/06 20:35:40;;;;;;;44.47;26.50;;;;;;;;;;4971928;28;20527;-93
2023/01/06 20:38:06;;;;;;;40.13;24.25;;;;;;;;;;4961103;28;20366;-93
2023/01/06 20:40:31;;;;;;;45.95;25.90;;;;;;;;;;4983850;28;20049;-93
2023/01/06 20:42:57;;;;;;;40.40;23.80;;;;;;;;;;4974486;28;20047;-94
2023/01/06 20:45:22;;;;;;;43.05;25.58;;;;;;;;;;4974546;28;20462;-94
2023/01/06 20:47:48;;;;;;;44.50;27.60;;;;;;;;;;4974486;28;20026;-93
2023/01/06 20:50:13;;;;;;;44.25;25.35;;;;;;;;;;4973959;28;20429;-91
2023/01/06 20:52:41;;;;;;;49.55;26.98;;;;;;;;;;4963762;28;20118;-94
2023/01/06 20:55:07;;;;;;;47.30;27.98;;;;;;;;;;4971780;28;20026;-93
2023/01/06 20:57:33;;;;;;;44.88;26.15;;;;;;;;;;4974595;28;20035;-92
2023/01/06 20:59:58;;;;;;;48.58;26.40;;;;;;;;;;4975434;28;20038;-93
2023/01/06 21:02:24;;;;;;;45.42;27.15;;;;;;;;;;4974943;28;20023;-93
2023/01/06 21:04:49;;;;;;;41.55;26.77;;;;;;;;;;4977550;28;20030;-94
2023/01/06 21:07:14;;;;;;;45.30;25.48;;;;;;;;;;4976536;28;20023;-91
2023/01/06 21:09:41;;;;;;;40.13;23.75;;;;;;;;;;4975055;28;20058;-91
2023/01/06 21:12:07;;;;;;;43.95;25.00;;;;;;;;;;4971517;28;20035;-94
2023/01/06 21:14:33;;;;;;;40.83;24.27;;;;;;;;;;4977358;28;20034;-93
2023/01/06 21:16:58;;;;;;;41.40;24.17;;;;;;;;;;4973974;28;20037;-94
2023/01/06 21:19:24;;;;;;;40.22;23.60;;;;;;;;;;4974198;28;20053;-93
2023/01/06 21:21:50;;;;;;;37.55;22.25;;;;;;;;;;4961304;28;20046;-93
2023/01/06 21:24:15;;;;;;;49.22;28.58;;;;;;;;;;4973407;28;20027;-94
2023/01/06 21:26:41;;;;;;;38.85;24.23;;;;;;;;;;4974095;28;20114;-93
2023/01/06 21:29:06;;;;;;;38.35;24.02;;;;;;;;;;4974082;28;20035;-93
2023/01/06 21:31:32;;;;;;;40.55;23.52;;;;;;;;;;4974135;28;20040;-93
2023/01/06 21:33:57;;;;;;;42.55;25.13;;;;;;;;;;4973751;28;20055;-94
2023/01/06 21:36:23;;;;;;;40.10;23.55;;;;;;;;;;4973916;28;20027;-94
2023/01/06 21:38:48;;;;;;;37.35;22.58;;;;;;;;;;4974019;28;20031;-94
2023/01/06 21:43:57;;;;;;;34.80;21.02;;;;;;;;;;4975334;28;20094;-94
2023/01/06 21:46:23;;;;;;;34.78;20.15;;;;;;;;;;4973813;28;20019;-94
2023/01/06 21:48:49;;;;;;;37.63;21.95;;;;;;;;;;4973699;28;20469;-94
2023/01/06 21:51:14;;;;;;;40.55;23.13;;;;;;;;;;4973979;28;20454;-94
2023/01/06 21:53:40;;;;;;;52.10;31.27;;;;;;;;;;4960477;28;20045;-94
2023/01/06 21:56:07;;;;;;;32.63;19.48;;;;;;;;;;4973888;28;20496;-93
2023/01/06 21:58:33;;;;;;;38.08;20.52;;;;;;;;;;4973768;28;20113;-94
2023/01/06 22:00:58;;;;;;;34.33;18.98;;;;;;;;;;4975167;28;20023;-94
2023/01/06 22:03:24;;;;;;;36.53;20.75;;;;;;;;;;4977356;28;20038;-94
2023/01/06 22:05:50;;;;;;;38.58;20.02;;;;;;;;;;4977478;28;20027;-94
2023/01/06 22:08:16;;;;;;;41.20;21.10;;;;;;;;;;4977528;28;20027;-95
2023/01/06 22:10:43;;;;;;;37.03;20.30;;;;;;;;;;4977218;28;20059;-94
2023/01/06 22:13:12;;;;;;;34.63;19.42;;;;;;;;;;4977473;28;20039;-94
2023/01/06 22:15:39;;;;;;;32.65;17.85;;;;;;;;;;4977240;28;20029;-95
2023/01/06 22:18:06;;;;;;;33.53;18.33;;;;;;;;;;4977271;28;20121;-94
2023/01/06 22:20:32;;;;;;;66.13;32.20;;;;;;;;;;4977533;28;20027;-95
2023/01/06 22:23:04;;;;;;;50.67;27.77;;;;;;;;;;4977617;28;20030;-94
2023/01/06 22:25:30;;;;;;;42.67;23.48;;;;;;;;;;4977108;28;20034;-94
2023/01/06 22:27:57;;;;;;;45.92;25.45;;;;;;;;;;4977133;28;20041;-96
2023/01/06 22:30:23;;;;;;;48.33;25.88;;;;;;;;;;4977043;28;20023;-95
2023/01/06 22:32:49;;;;;;;43.40;24.67;;;;;;;;;;4976871;28;20030;-94
2023/01/06 22:35:16;;;;;;;47.47;26.75;;;;;;;;;;4977166;28;20474;-93
2023/01/06 22:37:42;;;;;;;62.08;35.03;;;;;;;;;;4977159;28;20023;-95
2023/01/06 22:40:09;;;;;;;62.22;35.95;;;;;;;;;;4977705;28;20034;-94
2023/01/06 22:42:34;;;;;;;52.38;30.17;;;;;;;;;;4980000;28;20030;-94
2023/01/06 22:45:00;;;;;;;56.28;29.63;;;;;;;;;;4979361;28;20068;-96
